Time;durP1;ratioP1;P1;durP2;ratioP2;P2;SDS_P1;SDS_P2;PMS_P1;PMS_P2;Temp;Humidity;BMP_temperature;BMP_pressure;BME280_temperature;BME280_humidity;BME280_pressure;Samples;Min_cycle;Max_cycle;Signal;HPM_P1;HPM_P2
2022/08/01 00:01:38;;;;;;;5.78;5.38;;;21.20;99.90;;;;;;5031301;28;20679;-65
2022/08/01 00:04:04;;;;;;;6.33;5.83;;;21.30;99.90;;;;;;5031549;28;20714;-64
2022/08/01 00:06:30;;;;;;;7.03;6.47;;;21.30;99.90;;;;;;5031696;28;20207;-65
2022/08/01 00:08:56;;;;;;;5.25;4.95;;;21.30;99.90;;;;;;5031538;28;20191;-65
2022/08/01 00:11:21;;;;;;;5.20;4.80;;;21.30;99.90;;;;;;5031761;28;20192;-65
2022/08/01 00:13:47;;;;;;;7.27;6.87;;;21.30;99.90;;;;;;5029745;28;20203;-65
2022/08/01 00:16:13;;;;;;;4.57;4.30;;;21.30;99.90;;;;;;5031484;28;20282;-65
2022/08/01 00:18:39;;;;;;;5.93;5.53;;;21.40;99.90;;;;;;5031561;28;20179;-65
2022/08/01 00:21:05;;;;;;;6.50;6.00;;;21.40;99.90;;;;;;5031602;28;20218;-65
2022/08/01 00:23:31;;;;;;;4.85;4.45;;;21.50;99.90;;;;;;5031112;28;20187;-66
2022/08/01 00:25:57;;;;;;;6.80;6.40;;;21.30;99.90;;;;;;5031303;28;20206;-65
2022/08/01 00:28:22;;;;;;;5.38;5.07;;;21.30;99.90;;;;;;5031253;28;20633;-65
2022/08/01 00:30:48;;;;;;;5.87;5.57;;;21.20;99.90;;;;;;5031189;28;20194;-65
2022/08/01 00:33:14;;;;;;;7.57;6.33;;;21.20;99.90;;;;;;5031150;28;20230;-65
2022/08/01 00:35:39;;;;;;;7.27;6.80;;;21.10;99.90;;;;;;5030963;28;20585;-65
2022/08/01 00:38:05;;;;;;;6.83;6.53;;;21.10;99.90;;;;;;5031348;28;20397;-65
2022/08/01 00:40:31;;;;;;;6.83;5.10;;;21.00;99.90;;;;;;5031422;28;20648;-65
2022/08/01 00:42:56;;;;;;;8.43;5.00;;;21.00;99.90;;;;;;5031388;28;20179;-64
2022/08/01 00:45:22;;;;;;;6.27;5.73;;;21.00;99.90;;;;;;5030846;28;20617;-65
2022/08/01 00:47:47;;;;;;;7.23;6.80;;;21.00;99.90;;;;;;5029554;28;20198;-65
2022/08/01 00:50:13;;;;;;;6.60;6.17;;;21.00;99.90;;;;;;5031088;28;20191;-65
2022/08/01 00:52:40;;;;;;;7.00;6.50;;;21.00;99.90;;;;;;5031169;28;20194;-65
2022/08/01 00:55:06;;;;;;;7.67;7.17;;;21.00;99.90;;;;;;5030754;28;20278;-65
2022/08/01 00:57:32;;;;;;;9.00;8.20;;;20.90;99.90;;;;;;5031093;28;20258;-65
2022/08/01 00:59:58;;;;;;;6.87;6.47;;;20.90;99.90;;;;;;5030850;28;20183;-65
2022/08/01 01:02:23;;;;;;;7.00;6.60;;;20.90;99.90;;;;;;5030898;28;20184;-64
2022/08/01 01:04:49;;;;;;;6.43;5.80;;;20.90;99.90;;;;;;5030641;28;20239;-65
2022/08/01 01:07:30;;;;;;;6.30;5.90;;;20.80;99.90;;;;;;5030808;28;20190;-65
2022/08/01 01:10:05;;;;;;;6.20;5.87;;;20.70;99.90;;;;;;5031225;28;20187;-65
2022/08/01 01:12:47;;;;;;;7.23;5.47;;;20.70;99.90;;;;;;5030980;28;20171;-65
2022/08/01 01:15:27;;;;;;;6.83;6.23;;;20.60;99.90;;;;;;5030422;28;20206;-65
2022/08/01 01:18:07;;;;;;;6.37;5.83;;;20.60;99.90;;;;;;5030883;28;20190;-65
2022/08/01 01:20:45;;;;;;;6.50;5.90;;;20.60;99.90;;;;;;5030914;28;20218;-65
2022/08/01 01:23:37;;;;;;;6.73;5.50;;;20.70;99.90;;;;;;5030613;28;20175;-65
2022/08/01 01:26:20;;;;;;;5.67;5.17;;;20.70;99.90;;;;;;5030678;28;20287;-65
2022/08/01 01:29:17;;;;;;;5.63;5.13;;;20.70;99.90;;;;;;5024619;28;20187;-66
2022/08/01 01:31:58;;;;;;;5.80;5.50;;;20.70;99.90;;;;;;5023841;28;20175;-65
2022/08/01 01:34:26;;;;;;;5.90;5.50;;;20.70;99.90;;;;;;5030081;28;20207;-64
2022/08/01 01:36:56;;;;;;;6.30;5.77;;;20.60;99.90;;;;;;5030558;28;20195;-64
2022/08/01 01:39:25;;;;;;;6.83;6.37;;;20.60;99.90;;;;;;5030620;28;20215;-64
2022/08/01 01:41:53;;;;;;;6.90;6.30;;;20.60;99.90;;;;;;5030948;28;20176;-65
2022/08/01 01:44:19;;;;;;;7.37;6.30;;;20.60;99.90;;;;;;5030456;28;20184;-65
2022/08/01 01:46:46;;;;;;;5.90;5.40;;;20.60;99.90;;;;;;5030261;28;20221;-65
2022/08/01 01:49:13;;;;;;;7.67;5.50;;;20.60;99.90;;;;;;5032237;28;20560;-65
2022/08/01 01:51:41;;;;;;;5.83;5.33;;;20.60;99.90;;;;;;5026499;28;20183;-65
2022/08/01 01:54:09;;;;;;;5.93;5.53;;;20.60;99.90;;;;;;5034056;28;20199;-65
2022/08/01 01:56:48;;;;;;;5.77;5.43;;;20.60;99.90;;;;;;5034098;28;20580;-64
2022/08/01 01:59:15;;;;;;;6.00;5.60;;;20.60;99.90;;;;;;5034634;28;20230;-65
2022/08/01 02:01:41;;;;;;;6.87;6.47;;;20.60;99.90;;;;;;5033152;28;20657;-64
2022/08/01 02:04:07;;;;;;;7.10;6.60;;;20.60;99.90;;;;;;5033647;28;20187;-64
2022/08/01 02:06:34;;;;;;;6.80;6.40;;;20.50;99.90;;;;;;5033536;28;20195;-65
2022/08/01 02:09:01;;;;;;;6.33;6.03;;;20.60;99.90;;;;;;5034217;28;20645;-65
2022/08/01 02:11:28;;;;;;;6.53;5.93;;;20.60;99.90;;;;;;5034090;28;20335;-65
2022/08/01 02:14:04;;;;;;;5.63;5.27;;;20.60;99.90;;;;;;5033565;28;20289;-65
2022/08/01 02:16:34;;;;;;;5.57;5.17;;;20.50;99.90;;;;;;5033769;28;20556;-65
2022/08/01 02:18:59;;;;;;;6.27;5.87;;;20.50;99.90;;;;;;5034618;28;20179;-65
2022/08/01 02:21:32;;;;;;;5.93;5.43;;;20.50;99.90;;;;;;5034209;28;20686;-65
2022/08/01 02:24:08;;;;;;;6.07;5.67;;;20.50;99.90;;;;;;5033567;28;20211;-65
2022/08/01 02:26:38;;;;;;;5.80;5.40;;;20.50;99.90;;;;;;5034269;28;20203;-65
2022/08/01 02:29:07;;;;;;;6.80;6.10;;;20.50;99.90;;;;;;5033862;28;20175;-64
2022/08/01 02:31:38;;;;;;;6.70;6.30;;;20.50;99.90;;;;;;5033972;28;20175;-65
2022/08/01 02:34:06;;;;;;;7.60;6.03;;;20.50;99.90;;;;;;5033491;28;20533;-64
2022/08/01 02:36:35;;;;;;;5.93;5.53;;;20.50;99.90;;;;;;5033661;28;20604;-64
2022/08/01 02:39:06;;;;;;;6.40;6.00;;;20.50;99.90;;;;;;5033705;28;20188;-65
2022/08/01 02:41:35;;;;;;;6.07;5.67;;;20.50;99.90;;;;;;5033444;28;20379;-65
2022/08/01 02:44:05;;;;;;;6.80;6.30;;;20.40;99.90;;;;;;5033299;28;20842;-65
2022/08/01 02:46:37;;;;;;;6.10;5.70;;;20.40;99.90;;;;;;5033619;28;20222;-64
2022/08/01 02:49:07;;;;;;;6.40;6.00;;;20.40;99.90;;;;;;5033727;28;20194;-62
2022/08/01 02:51:35;;;;;;;7.00;6.40;;;20.40;99.90;;;;;;5033442;28;20179;-64
2022/08/01 02:54:02;;;;;;;5.80;5.40;;;20.40;99.90;;;;;;5033439;28;20214;-64
2022/08/01 02:56:34;;;;;;;8.27;5.80;;;20.40;99.90;;;;;;5033527;28;20194;-63
2022/08/01 02:59:03;;;;;;;7.07;5.70;;;20.40;99.90;;;;;;5033261;28;20611;-64
2022/08/01 03:01:30;;;;;;;6.57;5.97;;;20.40;99.90;;;;;;5031651;28;20634;-63
2022/08/01 03:03:56;;;;;;;6.50;5.90;;;20.30;99.90;;;;;;5032943;28;20184;-63
2022/08/01 03:06:23;;;;;;;5.53;5.17;;;20.30;99.90;;;;;;5033149;28;20196;-64
2022/08/01 03:08:49;;;;;;;5.97;5.50;;;20.40;99.90;;;;;;5033023;28;20187;-64
2022/08/01 03:11:15;;;;;;;6.20;5.70;;;20.40;99.90;;;;;;5033001;28;20183;-64
2022/08/01 03:13:43;;;;;;;5.27;4.90;;;20.40;99.90;;;;;;5032684;28;20943;-62
2022/08/01 03:16:10;;;;;;;5.60;5.10;;;20.40;99.90;;;;;;5032670;28;20215;-63
2022/08/01 03:18:38;;;;;;;6.27;5.80;;;20.40;99.90;;;;;;5033032;28;20187;-64
2022/08/01 03:21:04;;;;;;;6.30;5.80;;;20.50;99.90;;;;;;5032747;28;20233;-63
2022/08/01 03:23:32;;;;;;;7.27;6.73;;;20.50;99.90;;;;;;5032708;28;20187;-63
2022/08/01 03:26:00;;;;;;;6.17;5.80;;;20.50;99.90;;;;;;5031535;28;20199;-63
2022/08/01 03:28:27;;;;;;;7.00;5.83;;;20.50;99.90;;;;;;5032789;28;20644;-62
2022/08/01 03:30:53;;;;;;;9.20;6.37;;;20.50;99.90;;;;;;5032727;28;20586;-62
2022/08/01 03:33:19;;;;;;;7.40;6.70;;;20.40;99.90;;;;;;5032329;28;20211;-64
2022/08/01 03:35:51;;;;;;;7.40;6.90;;;20.30;99.90;;;;;;5032287;28;20199;-64
2022/08/01 03:38:22;;;;;;;6.87;6.40;;;20.30;99.90;;;;;;5032761;28;20186;-63
2022/08/01 03:40:53;;;;;;;6.97;6.37;;;20.30;99.90;;;;;;5032662;28;20194;-64
2022/08/01 03:43:46;;;;;;;6.80;6.30;;;20.30;99.90;;;;;;5032262;28;20187;-64
2022/08/01 03:46:18;;;;;;;7.43;6.73;;;20.30;99.90;;;;;;5031991;28;20218;-64
2022/08/01 03:48:50;;;;;;;7.03;6.40;;;20.20;99.90;;;;;;5032196;28;20175;-64
2022/08/01 03:51:18;;;;;;;6.80;6.17;;;20.20;99.90;;;;;;5032360;28;20191;-64
2022/08/01 03:53:45;;;;;;;5.83;5.30;;;20.20;99.90;;;;;;5031888;28;20222;-64
2022/08/01 03:56:16;;;;;;;8.70;8.00;;;20.20;99.90;;;;;;5031903;28;20258;-62
2022/08/01 03:58:43;;;;;;;8.20;7.53;;;20.10;99.90;;;;;;5025932;28;20175;-63
2022/08/01 04:01:09;;;;;;;8.57;7.90;;;20.00;99.90;;;;;;5032094;28;20176;-64
2022/08/01 04:03:35;;;;;;;7.00;6.30;;;19.90;99.90;;;;;;5031552;28;20183;-64
2022/08/01 04:06:08;;;;;;;7.70;7.10;;;19.90;99.90;;;;;;5031925;28;20290;-64
2022/08/01 04:08:38;;;;;;;8.87;8.13;;;19.90;99.90;;;;;;5031766;28;20183;-61
2022/08/01 04:11:04;;;;;;;11.13;9.83;;;19.90;99.90;;;;;;5031973;28;20185;-64
2022/08/01 04:13:31;;;;;;;10.00;9.10;;;19.80;99.90;;;;;;5031139;28;20212;-64
2022/08/01 04:15:56;;;;;;;9.60;8.33;;;19.80;99.90;;;;;;5031612;28;20689;-64
2022/08/01 04:18:22;;;;;;;9.20;8.50;;;19.90;99.90;;;;;;5031560;28;20175;-62
2022/08/01 04:20:47;;;;;;;12.60;9.97;;;19.80;99.90;;;;;;5031461;28;20504;-63
2022/08/01 04:23:17;;;;;;;12.60;9.77;;;19.80;99.90;;;;;;5031636;28;20267;-63
2022/08/01 04:25:44;;;;;;;11.23;9.97;;;19.90;99.90;;;;;;5024163;28;20553;-64
2022/08/01 04:28:16;;;;;;;12.50;11.40;;;19.80;99.90;;;;;;5031804;28;20186;-62
2022/08/01 04:30:44;;;;;;;14.53;12.60;;;19.90;99.90;;;;;;5031558;28;20325;-64
2022/08/01 04:33:13;;;;;;;14.83;11.93;;;20.00;99.90;;;;;;5031544;28;20206;-64
2022/08/01 04:35:41;;;;;;;13.03;11.83;;;20.00;99.90;;;;;;5030794;28;20287;-64
2022/08/01 04:38:08;;;;;;;13.23;11.93;;;20.10;99.90;;;;;;5031431;28;20174;-62
2022/08/01 04:40:36;;;;;;;14.27;12.57;;;20.10;99.90;;;;;;5031194;28;20637;-62
2022/08/01 04:43:02;;;;;;;16.57;10.67;;;20.20;99.90;;;;;;5031489;28;20183;-64
2022/08/01 04:45:28;;;;;;;14.13;12.47;;;20.20;99.90;;;;;;5031202;28;20222;-64
2022/08/01 04:47:54;;;;;;;13.13;11.43;;;20.30;99.90;;;;;;5031217;28;20707;-63
2022/08/01 04:50:21;;;;;;;13.20;11.90;;;20.30;99.90;;;;;;5031129;28;20211;-64
2022/08/01 04:52:47;;;;;;;15.63;14.20;;;20.40;99.90;;;;;;5023764;28;20186;-64
2022/08/01 04:55:13;;;;;;;14.37;12.53;;;20.40;99.90;;;;;;5030818;28;20200;-64
2022/08/01 04:57:42;;;;;;;14.20;11.27;;;20.30;99.90;;;;;;5031045;28;20207;-64
2022/08/01 05:00:08;;;;;;;14.67;11.70;;;20.40;99.90;;;;;;5031004;28;20175;-64
2022/08/01 05:02:34;;;;;;;16.13;12.33;;;20.40;99.90;;;;;;5030866;28;20229;-64
2022/08/01 05:05:00;;;;;;;15.20;12.70;;;20.40;99.90;;;;;;5030772;28;20179;-64
2022/08/01 05:07:25;;;;;;;18.43;15.07;;;20.40;99.90;;;;;;5030753;28;20175;-64
2022/08/01 05:09:51;;;;;;;18.07;15.57;;;20.50;99.90;;;;;;5031026;28;20229;-64
2022/08/01 05:12:17;;;;;;;17.57;12.27;;;20.50;99.90;;;;;;5031025;28;20202;-63
2022/08/01 05:14:42;;;;;;;17.90;13.60;;;20.50;99.90;;;;;;5030374;28;20692;-63
2022/08/01 05:17:09;;;;;;;17.50;13.07;;;20.50;99.90;;;;;;5031033;28;20198;-64
2022/08/01 05:19:36;;;;;;;15.90;14.40;;;20.50;99.90;;;;;;5030856;28;20168;-63
2022/08/01 05:22:05;;;;;;;14.73;13.10;;;20.50;99.90;;;;;;5030980;28;20176;-63
2022/08/01 05:24:32;;;;;;;17.47;12.97;;;20.50;99.90;;;;;;5032611;28;20652;-64
2022/08/01 05:26:59;;;;;;;14.63;13.13;;;20.60;99.90;;;;;;5034952;28;20199;-63
2022/08/01 05:29:24;;;;;;;15.47;13.07;;;20.60;99.90;;;;;;5034953;28;20179;-64
2022/08/01 05:31:51;;;;;;;15.47;12.57;;;20.70;99.90;;;;;;5034500;28;20187;-63
2022/08/01 05:34:17;;;;;;;17.73;12.70;;;20.70;99.90;;;;;;5034302;28;20199;-63
2022/08/01 05:36:42;;;;;;;14.83;12.93;;;20.70;99.90;;;;;;5034440;28;20286;-64
2022/08/01 05:39:08;;;;;;;15.07;12.50;;;20.80;99.90;;;;;;5034738;28;20259;-63
2022/08/01 05:41:36;;;;;;;14.73;12.47;;;20.80;99.90;;;;;;5034431;28;20174;-64
2022/08/01 05:44:02;;;;;;;13.43;12.17;;;20.80;99.90;;;;;;5026484;28;20182;-63
2022/08/01 05:46:27;;;;;;;14.07;12.77;;;20.90;99.90;;;;;;5034388;28;20222;-63
2022/08/01 05:48:53;;;;;;;11.03;9.93;;;20.90;99.90;;;;;;5034129;28;20180;-63
2022/08/01 05:51:19;;;;;;;12.13;10.93;;;21.10;99.90;;;;;;5034568;28;20172;-63
2022/08/01 05:53:44;;;;;;;15.67;12.07;;;21.20;99.90;;;;;;5031572;28;20696;-63
2022/08/01 05:56:10;;;;;;;11.83;10.63;;;21.30;99.90;;;;;;5033918;28;20193;-63
2022/08/01 05:58:36;;;;;;;14.47;12.87;;;21.40;99.90;;;;;;5034324;28;20532;-63
2022/08/01 06:01:01;;;;;;;13.17;10.90;;;21.40;99.90;;;;;;5034014;28;20254;-63
2022/08/01 06:03:30;;;;;;;14.70;13.03;;;21.40;99.90;;;;;;5033481;28;20187;-64
2022/08/01 06:05:56;;;;;;;11.85;10.77;;;21.50;99.90;;;;;;5033997;28;20253;-63
2022/08/01 06:08:22;;;;;;;11.33;10.13;;;21.70;99.90;;;;;;5034183;28;20175;-63
2022/08/01 06:10:48;;;;;;;12.67;11.40;;;21.70;99.90;;;;;;5033829;28;20183;-64
2022/08/01 06:13:13;;;;;;;12.93;11.50;;;21.70;99.90;;;;;;5033955;28;20275;-63
2022/08/01 06:15:39;;;;;;;11.73;10.57;;;21.70;99.90;;;;;;5033374;28;20629;-64
2022/08/01 06:18:05;;;;;;;13.90;12.43;;;21.70;99.90;;;;;;5033929;28;20186;-62
2022/08/01 06:20:30;;;;;;;13.17;11.10;;;21.70;99.90;;;;;;5033750;28;20664;-64
2022/08/01 06:22:56;;;;;;;19.03;13.57;;;21.70;99.90;;;;;;5034274;28;20179;-63
2022/08/01 06:25:22;;;;;;;12.23;10.97;;;21.80;99.90;;;;;;5033755;28;20187;-63
2022/08/01 06:27:48;;;;;;;13.93;11.30;;;22.00;99.90;;;;;;5033700;28;20187;-62
2022/08/01 06:30:14;;;;;;;13.03;11.60;;;22.20;99.90;;;;;;5033953;28;20172;-63
2022/08/01 06:32:40;;;;;;;12.50;11.20;;;22.20;99.90;;;;;;5033228;28;20187;-64
2022/08/01 06:35:06;;;;;;;11.50;10.50;;;22.20;99.90;;;;;;5032959;28;20199;-64
2022/08/01 06:37:32;;;;;;;13.70;9.97;;;22.20;99.90;;;;;;5033396;28;20183;-64
2022/08/01 06:40:05;;;;;;;12.17;10.97;;;22.30;99.90;;;;;;5033161;28;20254;-64
2022/08/01 06:42:35;;;;;;;15.73;11.20;;;22.40;99.90;;;;;;5033454;28;20179;-64
2022/08/01 06:45:02;;;;;;;13.25;11.90;;;22.50;99.90;;;;;;5032954;28;20186;-64
2022/08/01 06:47:28;;;;;;;15.10;10.70;;;22.50;99.90;;;;;;5033132;28;20176;-64
2022/08/01 06:49:53;;;;;;;12.03;10.70;;;22.40;99.90;;;;;;5033195;28;20176;-63
2022/08/01 06:52:19;;;;;;;13.07;11.77;;;22.30;99.90;;;;;;5033263;28;20645;-63
2022/08/01 06:54:44;;;;;;;12.83;10.90;;;22.30;99.90;;;;;;5032870;28;20207;-63
2022/08/01 06:57:10;;;;;;;12.23;10.88;;;22.20;99.90;;;;;;5033147;28;20202;-62
2022/08/01 06:59:36;;;;;;;12.63;11.35;;;22.30;99.90;;;;;;5033013;28;20182;-63
2022/08/01 07:02:01;;;;;;;12.83;11.53;;;22.20;99.90;;;;;;5032473;28;20175;-63
2022/08/01 07:04:27;;;;;;;13.80;10.70;;;22.20;99.90;;;;;;5032382;28;20516;-64
2022/08/01 07:06:53;;;;;;;11.75;10.52;;;22.30;99.90;;;;;;5032762;28;20621;-64
2022/08/01 07:09:18;;;;;;;13.68;12.38;;;22.30;99.90;;;;;;5033117;28;20191;-63
2022/08/01 07:11:44;;;;;;;13.20;10.68;;;22.40;99.90;;;;;;5032657;28;20222;-64
2022/08/01 07:14:09;;;;;;;14.15;11.45;;;22.60;99.90;;;;;;5032297;28;20290;-62
2022/08/01 07:16:35;;;;;;;11.52;9.95;;;22.90;99.90;;;;;;5032756;28;20602;-64
2022/08/01 07:19:01;;;;;;;12.18;10.55;;;23.20;99.90;;;;;;5032792;28;20159;-63
2022/08/01 07:21:26;;;;;;;12.05;10.80;;;23.50;99.90;;;;;;5024519;28;20649;-65
2022/08/01 07:23:52;;;;;;;12.88;11.70;;;24.00;99.90;;;;;;5032773;28;20230;-64
2022/08/01 07:26:17;;;;;;;11.40;10.30;;;24.40;99.90;;;;;;5032421;28;20195;-64
2022/08/01 07:28:43;;;;;;;12.85;11.15;;;24.80;99.90;;;;;;5032523;28;20257;-65
2022/08/01 07:31:08;;;;;;;10.90;9.85;;;25.00;99.90;;;;;;5032510;28;20659;-65
2022/08/01 07:33:34;;;;;;;13.85;10.23;;;24.70;99.90;;;;;;5031984;28;20565;-65
2022/08/01 07:36:00;;;;;;;9.90;9.10;;;24.30;99.90;;;;;;5032338;28;20195;-64
2022/08/01 07:38:25;;;;;;;9.38;8.38;;;24.30;99.90;;;;;;5032190;28;20517;-65
2022/08/01 07:40:51;;;;;;;10.10;9.20;;;24.50;99.90;;;;;;5032376;28;20175;-64
2022/08/01 07:43:16;;;;;;;10.07;9.18;;;24.50;99.90;;;;;;5032169;28;20180;-64
2022/08/01 07:45:42;;;;;;;11.82;10.82;;;24.50;99.90;;;;;;5031752;28;20688;-64
2022/08/01 07:48:08;;;;;;;9.35;8.55;;;24.70;99.90;;;;;;5031452;28;20237;-65
2022/08/01 07:50:33;;;;;;;10.93;9.93;;;24.80;99.90;;;;;;5024205;28;20179;-65
2022/08/01 07:52:59;;;;;;;10.00;9.15;;;25.00;99.90;;;;;;5031775;28;20642;-63
2022/08/01 07:55:26;;;;;;;16.42;14.98;;;25.30;99.90;;;;;;5031731;28;20242;-64
2022/08/01 07:57:51;;;;;;;16.33;15.15;;;25.40;99.90;;;;;;5031986;28;20222;-64
2022/08/01 08:00:18;;;;;;;10.25;9.32;;;25.70;99.90;;;;;;5031799;28;20704;-64
2022/08/01 08:02:44;;;;;;;7.97;7.28;;;26.00;99.90;;;;;;5031250;28;20646;-65
2022/08/01 08:05:10;;;;;;;7.70;7.00;;;26.40;99.90;;;;;;5030956;28;20192;-65
2022/08/01 08:07:36;;;;;;;7.05;6.45;;;27.00;99.90;;;;;;5032173;28;20214;-65
2022/08/01 08:10:02;;;;;;;8.90;6.15;;;27.60;99.90;;;;;;5031418;28;20207;-66
2022/08/01 08:12:27;;;;;;;6.95;6.35;;;27.70;99.90;;;;;;5031572;28;20201;-65
2022/08/01 08:14:53;;;;;;;6.90;6.20;;;28.00;99.90;;;;;;5030442;28;20319;-65
2022/08/01 08:17:19;;;;;;;6.93;6.22;;;28.20;99.90;;;;;;5032244;28;20178;-64
2022/08/01 08:19:44;;;;;;;6.32;5.70;;;28.50;99.90;;;;;;5032137;28;20178;-64
2022/08/01 08:22:10;;;;;;;6.18;5.57;;;29.00;99.90;;;;;;5031847;28;20229;-64
2022/08/01 08:24:36;;;;;;;6.45;5.90;;;29.10;99.90;;;;;;5031454;28;20179;-64
2022/08/01 08:27:03;;;;;;;6.32;5.82;;;28.80;99.90;;;;;;5031161;28;20688;-64
2022/08/01 08:29:31;;;;;;;6.38;5.88;;;28.40;99.90;;;;;;5031944;28;20267;-63
2022/08/01 08:31:58;;;;;;;9.07;6.82;;;28.00;99.90;;;;;;5031669;28;20653;-65
2022/08/01 08:34:24;;;;;;;7.65;6.95;;;27.30;99.90;;;;;;5031255;28;20207;-64
2022/08/01 08:36:50;;;;;;;8.13;7.35;;;26.80;99.90;;;;;;5031945;28;20191;-64
2022/08/01 08:39:16;;;;;;;18.80;17.73;;;26.50;99.90;;;;;;5032002;28;20182;-66
2022/08/01 08:41:42;;;;;;;10.15;7.10;;;26.20;99.90;;;;;;5031821;28;20171;-65
2022/08/01 08:44:09;;;;;;;12.88;11.88;;;25.90;99.90;;;;;;5031401;28;20203;-65
2022/08/01 08:46:40;;;;;;;8.27;7.53;;;25.70;99.90;;;;;;5031237;28;20775;-63
2022/08/01 08:49:07;;;;;;;9.40;8.57;;;25.60;99.90;;;;;;5031698;28;20550;-64
2022/08/01 08:51:34;;;;;;;9.05;7.88;;;25.40;99.90;;;;;;5031759;28;20218;-65
2022/08/01 08:54:02;;;;;;;22.48;21.27;;;25.20;99.90;;;;;;5031203;28;20211;-64
2022/08/01 08:56:33;;;;;;;18.48;17.45;;;25.10;99.90;;;;;;5031596;28;20202;-65
2022/08/01 08:58:59;;;;;;;18.13;16.92;;;25.10;99.90;;;;;;5031405;28;20176;-64
2022/08/01 09:01:24;;;;;;;16.15;15.02;;;25.10;99.90;;;;;;5031353;28;20262;-65
2022/08/01 09:03:50;;;;;;;27.98;26.48;;;25.40;99.90;;;;;;5030864;28;20174;-64
2022/08/01 09:06:16;;;;;;;10.82;10.00;;;25.50;99.90;;;;;;5031144;28;20191;-65
2022/08/01 09:08:41;;;;;;;8.48;7.78;;;25.60;99.90;;;;;;5031316;28;20229;-65
2022/08/01 09:11:07;;;;;;;7.82;7.22;;;25.60;99.90;;;;;;5031420;28;20179;-64
2022/08/01 09:13:33;;;;;;;7.88;7.18;;;25.50;99.90;;;;;;5031011;28;20207;-64
2022/08/01 09:15:58;;;;;;;9.23;8.63;;;25.50;99.90;;;;;;5031172;28;20199;-64
2022/08/01 09:18:48;;;;;;;31.95;30.25;;;25.40;99.90;;;;;;5031283;28;20191;-64
2022/08/01 09:21:16;;;;;;;8.48;7.75;;;25.10;99.90;;;;;;5031354;28;20233;-64
2022/08/01 09:23:48;;;;;;;7.22;6.55;;;24.90;99.90;;;;;;5030958;28;20614;-64
2022/08/01 09:26:16;;;;;;;7.45;6.68;;;24.70;99.90;;;;;;5030633;28;20690;-64
2022/08/01 09:28:42;;;;;;;7.78;7.07;;;24.70;99.90;;;;;;5031311;28;20220;-64
2022/08/01 09:31:11;;;;;;;8.68;6.80;;;24.70;99.90;;;;;;5031241;28;20186;-64
2022/08/01 09:34:12;;;;;;;9.40;8.55;;;24.70;99.90;;;;;;5030778;28;20494;-64
2022/08/01 09:36:56;;;;;;;9.88;9.00;;;25.00;99.90;;;;;;4950727;29;20197;-64
2022/08/01 09:39:28;;;;;;;8.93;8.15;;;25.20;99.90;;;;;;5025010;28;20187;-64
2022/08/01 09:41:56;;;;;;;9.35;8.43;;;25.40;99.90;;;;;;5031516;28;20175;-63
2022/08/01 09:44:39;;;;;;;17.42;16.27;;;25.70;99.90;;;;;;5030853;28;20195;-64
2022/08/01 09:47:05;;;;;;;7.40;6.78;;;26.00;99.90;;;;;;5031035;28;20211;-64
2022/08/01 09:49:34;;;;;;;7.47;6.68;;;26.50;99.90;;;;;;5031274;28;20201;-64
2022/08/01 09:52:17;;;;;;;7.50;5.45;;;27.20;99.90;;;;;;5031028;28;20175;-65
2022/08/01 09:54:57;;;;;;;7.50;6.10;;;27.90;99.90;;;;;;5030554;28;20207;-65
2022/08/01 09:57:23;;;;;;;6.18;5.57;;;28.90;99.90;;;;;;5030964;28;20167;-65
2022/08/01 09:59:51;;;;;;;5.90;5.50;;;29.40;99.90;;;;;;5031047;28;20202;-64
2022/08/01 10:02:34;;;;;;;5.65;5.15;;;29.50;99.90;;;;;;5030987;28;20533;-65
2022/08/01 10:05:02;;;;;;;5.70;5.20;;;29.40;99.90;;;;;;5030662;28;20172;-65
2022/08/01 10:07:28;;;;;;;5.80;5.30;;;29.00;99.90;;;;;;5031134;28;20262;-65
2022/08/01 10:09:54;;;;;;;6.97;6.22;;;28.80;99.90;;;;;;5031647;28;20211;-65
2022/08/01 10:12:21;;;;;;;6.22;5.72;;;28.60;99.90;;;;;;5034402;28;20179;-65
2022/08/01 10:14:55;;;;;;;6.28;5.78;;;28.90;99.90;;;;;;5033882;28;20203;-65
2022/08/01 10:17:24;;;;;;;5.57;4.95;;;29.30;99.90;;;;;;5033819;28;20309;-64
2022/08/01 10:19:54;;;;;;;6.38;4.93;;;29.50;99.90;;;;;;5034642;28;20172;-65
2022/08/01 10:22:22;;;;;;;5.72;5.25;;;29.40;99.90;;;;;;5024005;28;20179;-65
2022/08/01 10:24:53;;;;;;;6.93;5.63;;;29.50;99.90;;;;;;5033317;28;20184;-65
2022/08/01 10:27:19;;;;;;;7.10;6.30;;;29.20;99.90;;;;;;5033097;28;20574;-64
2022/08/01 10:30:03;;;;;;;6.25;5.50;;;28.50;99.90;;;;;;5033961;28;20172;-65
2022/08/01 10:32:30;;;;;;;5.90;5.35;;;28.40;99.90;;;;;;5033627;28;20639;-64
2022/08/01 10:34:56;;;;;;;6.45;5.75;;;28.20;99.90;;;;;;5033433;28;20253;-65
2022/08/01 10:37:23;;;;;;;6.45;5.95;;;28.20;99.90;;;;;;5033711;28;20203;-64
2022/08/01 10:39:51;;;;;;;5.93;5.32;;;28.60;99.90;;;;;;5033506;28;20183;-65
2022/08/01 10:42:18;;;;;;;5.68;5.28;;;29.20;99.90;;;;;;5033475;28;20181;-65
2022/08/01 10:44:47;;;;;;;6.15;5.10;;;29.80;99.90;;;;;;5032866;28;20525;-64
2022/08/01 10:47:24;;;;;;;5.30;4.90;;;30.10;99.90;;;;;;5034096;28;20237;-64
2022/08/01 10:50:02;;;;;;;5.00;4.60;;;30.00;99.90;;;;;;5033246;28;20187;-64
2022/08/01 10:52:27;;;;;;;6.15;5.55;;;29.80;99.90;;;;;;5033204;28;20724;-64
2022/08/01 10:55:09;;;;;;;6.90;6.20;;;29.80;99.90;;;;;;5032610;28;20203;-64
2022/08/01 10:57:47;;;;;;;7.15;6.45;;;29.10;99.90;;;;;;5033192;28;20225;-64
2022/08/01 11:00:21;;;;;;;5.55;5.05;;;28.80;99.90;;;;;;5033036;28;20171;-63
2022/08/01 11:03:02;;;;;;;5.30;4.82;;;28.50;99.90;;;;;;5033247;28;20637;-64
2022/08/01 11:05:31;;;;;;;5.28;4.88;;;28.30;99.90;;;;;;5032803;28;20243;-63
2022/08/01 11:08:01;;;;;;;5.90;4.97;;;28.10;99.90;;;;;;5033081;28;20660;-64
2022/08/01 11:10:43;;;;;;;5.57;5.07;;;28.10;99.90;;;;;;5032759;28;20180;-64
2022/08/01 11:13:08;;;;;;;4.45;4.15;;;28.30;99.90;;;;;;5032434;28;20203;-64
2022/08/01 11:15:35;;;;;;;4.70;4.40;;;28.80;99.90;;;;;;5032644;28;20234;-64
2022/08/01 11:18:03;;;;;;;5.43;4.60;;;29.10;99.90;;;;;;5032829;28;20657;-64
2022/08/01 11:20:32;;;;;;;4.18;3.80;;;29.40;99.90;;;;;;5032504;28;20183;-63
2022/08/01 11:23:01;;;;;;;4.40;4.10;;;29.60;99.90;;;;;;5031777;28;20186;-64
2022/08/01 11:25:48;;;;;;;4.00;3.70;;;30.20;99.90;;;;;;5032153;28;20282;-64
2022/08/01 11:28:13;;;;;;;3.63;3.33;;;30.60;99.90;;;;;;5031977;28;20180;-64
2022/08/01 11:30:50;;;;;;;4.10;3.80;;;31.10;99.90;;;;;;5032422;28;20179;-64
2022/08/01 11:33:18;;;;;;;3.45;3.25;;;31.80;99.90;;;;;;5032592;28;20301;-66
2022/08/01 11:36:17;;;;;;;3.85;3.55;;;32.40;99.90;;;;;;5032004;28;20619;-66
2022/08/01 11:38:47;;;;;;;5.15;3.60;;;32.00;99.90;;;;;;5032521;28;20591;-65
2022/08/01 11:41:14;;;;;;;4.22;3.92;;;31.50;99.90;;;;;;5032498;28;20247;-65
2022/08/01 11:43:59;;;;;;;4.15;3.85;;;31.00;99.90;;;;;;5031862;28;20229;-66
2022/08/01 11:47:09;;;;;;;4.70;4.30;;;30.60;99.90;;;;;;5032211;28;20712;-66
2022/08/01 11:49:39;;;;;;;4.22;3.92;;;29.90;99.90;;;;;;5028442;28;20191;-65
2022/08/01 11:52:11;;;;;;;4.75;4.20;;;29.40;99.90;;;;;;5032199;28;20175;-66
2022/08/01 11:54:40;;;;;;;4.20;3.90;;;29.00;99.90;;;;;;5031566;28;20615;-64
2022/08/01 11:57:23;;;;;;;4.13;3.83;;;28.70;99.90;;;;;;5032060;28;20681;-64
2022/08/01 11:59:56;;;;;;;5.18;4.78;;;28.70;99.90;;;;;;5032030;28;20449;-64
2022/08/01 12:02:30;;;;;;;5.10;4.70;;;28.50;99.90;;;;;;5031869;28;20703;-64
2022/08/01 12:05:00;;;;;;;4.82;4.53;;;28.40;99.90;;;;;;5031415;28;20217;-63
2022/08/01 12:07:29;;;;;;;5.22;4.72;;;28.30;99.90;;;;;;5024512;28;20168;-63
2022/08/01 12:09:58;;;;;;;4.20;3.90;;;28.10;99.90;;;;;;5031829;28;20973;-65
2022/08/01 12:12:23;;;;;;;4.65;4.28;;;28.00;99.90;;;;;;5031503;28;20179;-64
2022/08/01 12:14:56;;;;;;;4.20;3.90;;;28.00;99.90;;;;;;5030926;28;20261;-63
2022/08/01 12:17:34;;;;;;;5.22;4.78;;;28.10;99.90;;;;;;5031132;28;20254;-64
2022/08/01 12:20:00;;;;;;;5.18;4.70;;;28.30;99.90;;;;;;5023269;28;20179;-63
2022/08/01 12:22:26;;;;;;;3.85;3.65;;;28.50;99.90;;;;;;5031559;28;20163;-64
2022/08/01 12:24:52;;;;;;;3.95;3.60;;;29.00;99.90;;;;;;5031482;28;20175;-64
2022/08/01 12:27:28;;;;;;;3.70;3.40;;;29.60;99.90;;;;;;5031883;28;20175;-63
2022/08/01 12:29:57;;;;;;;3.80;3.50;;;29.70;99.90;;;;;;5030266;28;20222;-63
2022/08/01 12:32:30;;;;;;;3.25;3.08;;;29.50;99.90;;;;;;5030530;28;20523;-65
2022/08/01 12:35:00;;;;;;;4.63;3.22;;;29.70;99.90;;;;;;5031272;28;20206;-63
2022/08/01 12:37:26;;;;;;;3.28;3.08;;;29.80;99.90;;;;;;5031818;28;20174;-63
2022/08/01 12:39:52;;;;;;;3.92;3.63;;;29.80;99.90;;;;;;5031452;28;20524;-64
2022/08/01 12:42:18;;;;;;;3.33;3.13;;;29.70;99.90;;;;;;5031101;28;20225;-64
2022/08/01 12:44:51;;;;;;;3.67;3.47;;;29.70;99.90;;;;;;5031011;28;20916;-64
2022/08/01 12:47:18;;;;;;;2.90;2.80;;;29.60;99.90;;;;;;5031736;28;20238;-65
2022/08/01 12:49:45;;;;;;;3.17;2.97;;;29.60;99.90;;;;;;5031541;28;20642;-65